Latest Weather Observations for Port Hedland

IDW60801

Issued at 4:33 pm WST Wednesday 28 September 2016 (issued every 30 minutes, with the page automatically refreshed every 10 minutes)

About weather observations | Map of weather stations | Latest weather observations for WA | Other Formats
Station Details ID: 004032 Name: PORT HEDLAND AIRPORT Lat: -20.37 Lon: 118.63 Height: 6.4 m
Data from the previous 72 hours. | See also: Recent months at Port Hedland
Date/Time
WST
Temp
°C
App
Temp
°C
Dew
Point
°C
Rel
Hum
%
Delta-T
°C
Wind Press
QNH
hPa
Press
MSL
hPa
Rain since
9am
mm
Dir  Spd
km/h
Gust
km/h
Spd
kts
Gust
kts
28/04:30pm 27.0 25.5 17.8 57 5.8 N 22 30 12 16 1009.9 - 0.0
28/04:00pm 27.5 25.8 17.1 53 6.5 NNW 22 28 12 15 1009.5 - 0.0
28/03:30pm 28.1 26.4 17.1 51 6.9 NNW 22 30 12 16 1009.5 - 0.0
28/03:00pm 28.3 27.0 18.1 54 6.5 NNW 22 30 12 16 1009.6 1009.6 0.0
28/02:30pm 29.1 27.1 16.4 46 7.9 N 22 28 12 15 1009.8 - 0.0
28/02:00pm 29.8 27.3 15.1 40 9.0 N 22 30 12 16 1010.1 - 0.0
28/01:30pm 29.9 28.3 15.9 42 8.7 N 19 26 10 14 1010.6 - 0.0
28/01:00pm 30.1 28.5 14.9 39 9.3 N 17 24 9 13 1011.0 - 0.0
28/12:30pm 30.0 28.1 15.2 40 9.1 N 19 24 10 13 1011.5 - 0.0
28/12:00pm 29.9 27.6 14.6 39 9.3 NNE 20 24 11 13 1012.1 1012.1 0.0
28/11:30am 28.5 27.4 16.4 48 7.5 N 17 22 9 12 1012.6 - 0.0
28/11:00am 29.2 28.4 17.1 48 7.6 NNE 17 26 9 14 1012.9 - 0.0
28/10:30am 27.7 27.4 17.4 53 6.5 NE 15 22 8 12 1013.2 - 0.0
28/10:00am 29.0 27.0 13.8 39 9.1 E 17 32 9 17 1013.2 - 0.0
28/09:30am 27.9 25.7 14.4 43 8.1 ESE 19 28 10 15 1013.4 - 0.0
28/09:00am 27.6 26.4 15.1 46 7.6 SE 15 24 8 13 1013.5 1013.5 0.0
28/08:30am 26.4 28.3 17.6 58 5.5 S 4 9 2 5 1013.6 - 0.0
28/08:00am 25.1 27.2 19.3 70 3.7 SSE 7 11 4 6 1013.4 - 0.0
28/07:30am 24.2 26.4 19.5 75 3.0 SE 7 11 4 6 1013.1 - 0.0
28/07:00am 22.5 24.1 18.2 76 2.7 SE 7 11 4 6 1012.5 - 0.0
28/06:30am 19.8 20.6 15.9 78 2.3 SSE 6 7 3 4 1012.0 - 0.0
28/06:00am 18.7 19.4 15.5 81 1.9 SSE 6 7 3 4 1011.7 1011.7 0.0
28/05:30am 19.0 19.0 15.1 78 2.3 SSE 9 11 5 6 1011.5 - 0.0
28/05:00am 19.7 20.4 16.2 80 2.1 S 7 9 4 5 1011.1 - 0.0
28/04:30am 19.3 20.2 15.0 76 2.5 S 4 6 2 3 1010.7 - 0.0
28/04:00am 20.3 20.5 14.8 70 3.2 S 7 9 4 5 1010.5 - 0.0
28/03:30am 20.3 21.9 15.0 71 3.1 CALM 0 0 0 0 1010.6 - 0.0
28/03:00am 20.2 22.0 15.5 74 2.8 CALM 0 0 0 0 1010.5 1010.5 0.0
28/02:30am 20.3 22.1 15.4 73 2.9 CALM 0 0 0 0 1010.4 - 0.0
28/02:00am 20.9 22.9 16.1 74 2.9 CALM 0 0 0 0 1010.6 - 0.0
28/01:30am 21.2 23.2 15.9 72 3.2 CALM 0 0 0 0 1011.0 - 0.0
28/01:00am 22.1 24.3 16.5 70 3.4 CALM 0 6 0 3 1011.3 - 0.0
28/12:30am 22.5 23.6 17.0 71 3.4 WSW 7 9 4 5 1011.5 - 0.0
28/12:00am 22.2 23.3 17.0 72 3.2 WNW 7 9 4 5 1011.7 1011.7 0.0
 
Date/Time
WST
Temp
°C
App
Temp
°C
Dew
Point
°C
Rel
Hum
%
Delta-T
°C
Wind Press
QNH
hPa
Press
MSL
hPa
Rain since
9am
mm
Dir  Spd
km/h
Gust
km/h
Spd
kts
Gust
kts
27/11:30pm 22.5 22.9 16.2 67 3.8 NW 9 9 5 5 1011.8 - 0.0
27/11:00pm 23.1 23.2 15.4 62 4.6 WNW 9 11 5 6 1012.0 - 0.0
27/10:30pm 23.3 23.2 14.9 59 5.0 WNW 9 11 5 6 1012.0 - 0.0
27/10:00pm 23.8 23.2 14.5 56 5.5 NW 11 15 6 8 1012.2 - 0.0
27/09:30pm 24.1 22.4 13.5 51 6.2 N 15 17 8 9 1011.8 - 0.0
27/09:00pm 23.8 22.4 13.5 52 6.0 N 13 19 7 10 1011.8 1011.8 0.0
27/08:30pm 24.1 22.5 16.0 60 4.9 N 19 24 10 13 1011.5 - 0.0
27/08:00pm 24.3 23.4 17.7 66 4.1 N 19 24 10 13 1011.3 - 0.0
27/07:30pm 24.1 23.0 14.3 54 5.8 N 13 19 7 10 1011.2 - 0.0
27/07:00pm 24.0 23.8 17.6 67 4.0 N 15 20 8 11 1011.1 - 0.0
27/06:30pm 24.5 24.5 18.0 67 4.1 NNW 15 20 8 11 1010.8 - 0.0
27/06:00pm 24.5 24.5 19.7 74 3.1 N 19 24 10 13 1010.3 1010.3 0.0
27/05:30pm 24.5 24.8 20.7 79 2.5 N 20 26 11 14 1010.1 - 0.0
27/05:00pm 25.1 25.1 20.2 74 3.2 N 20 26 11 14 1009.9 - 0.0
27/04:30pm 25.5 25.3 18.4 65 4.5 NNW 17 22 9 12 1009.9 - 0.0
27/04:00pm 26.0 25.0 16.6 56 5.8 NNW 17 22 9 12 1009.9 - 0.0
27/03:30pm 26.2 23.9 14.1 47 7.2 NW 19 24 10 13 1009.7 - 0.0
27/03:00pm 26.0 23.7 14.2 48 7.0 NNW 19 22 10 12 1009.7 1009.7 0.0
27/02:30pm 26.7 24.3 13.7 44 7.7 N 19 24 10 13 1009.7 - 0.0
27/02:00pm 27.3 26.0 15.7 49 7.1 N 17 20 9 11 1009.8 - 0.0
27/01:30pm 27.1 26.8 17.4 55 6.1 N 15 20 8 11 1010.0 - 0.0
27/01:00pm 26.8 25.8 16.6 53 6.3 N 17 22 9 12 1010.3 - 0.0
27/12:30pm 27.5 26.1 16.5 51 6.8 N 19 24 10 13 1010.6 - 0.0
27/12:00pm 27.9 25.3 13.8 42 8.4 N 20 24 11 13 1010.7 1010.7 0.0
27/11:30am 27.8 25.6 14.9 45 7.8 NNE 20 24 11 13 1011.1 - 0.0
27/11:00am 27.3 26.0 15.9 49 7.0 NNE 17 20 9 11 1011.4 - 0.0
27/10:30am 27.6 26.0 14.0 43 8.1 NNE 15 19 8 10 1011.7 - 0.0
27/10:00am 28.2 25.6 13.3 40 8.8 NE 19 24 10 13 1012.1 - 0.0
27/09:30am 27.3 24.5 12.5 40 8.6 NE 19 24 10 13 1012.2 - 0.0
27/09:00am 26.8 24.1 11.8 39 8.6 E 17 22 9 12 1012.4 1012.4 0.0
27/08:30am 25.4 23.0 13.7 48 6.9 E 19 22 10 12 1012.3 - 0.0
27/08:00am 24.6 24.6 17.2 63 4.6 E 13 15 7 8 1012.6 - 0.0
27/07:30am 23.8 24.6 18.1 70 3.6 E 11 15 6 8 1012.3 - 0.0
27/07:00am 23.3 24.0 18.0 72 3.3 E 11 13 6 7 1011.7 - 0.0
27/06:30am 22.4 23.9 18.1 76 2.7 E 7 9 4 5 1011.5 - 0.0
27/06:00am 22.4 24.5 18.2 77 2.6 SE 4 6 2 3 1011.3 1011.3 0.0
27/05:30am 22.7 24.4 18.1 75 2.9 SE 6 7 3 4 1011.2 - 0.0
27/05:00am 22.6 24.1 18.1 76 2.8 S 7 9 4 5 1011.1 - 0.0
27/04:30am 22.6 24.1 18.1 76 2.8 SSE 7 9 4 5 1010.5 - 0.0
27/04:00am 22.7 23.8 18.1 75 2.9 SSE 9 13 5 7 1010.5 - 0.0
27/03:30am 22.6 24.3 18.1 76 2.8 SE 6 9 3 5 1010.5 - 0.0
27/03:00am 22.3 23.4 18.0 76 2.7 SSE 9 11 5 6 1010.5 1010.5 0.0
27/02:30am 22.5 23.6 18.0 75 2.8 SE 9 11 5 6 1010.5 - 0.0
27/02:00am 22.5 23.3 18.2 76 2.7 SSE 11 11 6 6 1010.7 - 0.0
27/01:30am 22.6 24.2 18.3 76 2.7 S 7 9 4 5 1011.2 - 0.0
27/01:00am 22.3 24.4 18.1 77 2.6 WSW 4 7 2 4 1011.4 - 0.0
27/12:30am 22.4 25.4 18.4 78 2.5 CALM 0 0 0 0 1011.3 - 0.0
27/12:00am 22.8 24.9 19.0 79 2.4 WSW 6 6 3 3 1011.5 1011.5 0.0
 
Date/Time
WST
Temp
°C
App
Temp
°C
Dew
Point
°C
Rel
Hum
%
Delta-T
°C
Wind Press
QNH
hPa
Press
MSL
hPa
Rain since
9am
mm
Dir  Spd
km/h
Gust
km/h
Spd
kts
Gust
kts
26/11:30pm 22.7 24.4 18.6 77 2.6 WSW 7 7 4 4 1011.8 - 0.0
26/11:00pm 23.0 25.0 18.7 77 2.7 WSW 6 7 3 4 1012.1 - 0.0
26/10:30pm 22.9 24.8 18.6 77 2.7 W 6 7 3 4 1012.2 - 0.0
26/10:00pm 23.1 24.9 18.7 76 2.8 WNW 7 9 4 5 1012.4 - 0.0
26/09:30pm 23.5 25.3 18.8 75 3.0 NNW 7 9 4 5 1012.5 - 0.0
26/09:00pm 23.7 25.2 18.8 74 3.1 NW 9 11 5 6 1012.4 1012.4 0.0
26/08:30pm 24.1 25.2 18.9 72 3.3 NNW 11 13 6 7 1011.9 - 0.0
26/08:00pm 24.3 24.8 18.4 69 3.7 N 13 20 7 11 1011.5 - 0.0
26/07:30pm 24.5 24.4 18.7 70 3.7 N 17 22 9 12 1011.0 - 0.0
26/07:00pm 24.5 24.6 18.3 68 3.9 N 15 20 8 11 1010.7 - 0.0
26/06:30pm 24.6 25.1 18.4 68 3.9 N 13 19 7 10 1010.4 - 0.0
26/06:00pm 24.9 23.8 17.2 62 4.8 N 19 24 10 13 1009.9 1009.9 0.0
26/05:30pm 25.2 23.4 15.6 55 5.8 N 19 22 10 12 1009.6 - 0.0
26/05:00pm 25.4 23.7 15.7 55 5.9 N 19 24 10 13 1009.4 - 0.0
26/04:30pm 26.2 23.7 14.1 47 7.2 N 20 26 11 14 1009.2 - 0.0
26/04:00pm 26.9 23.7 13.1 42 8.1 N 22 28 12 15 1009.1 - 0.0
26/03:30pm 26.7 23.4 11.7 39 8.6 N 20 26 11 14 1009.0 - 0.0
26/03:00pm 26.9 23.7 14.2 45 7.6 N 24 30 13 16 1008.9 1008.9 0.0
26/02:30pm 27.3 24.8 15.1 47 7.4 NNE 22 26 12 14 1009.0 - 0.0
26/02:00pm 27.4 25.3 15.2 47 7.4 N 20 26 11 14 1009.3 - 0.0
26/01:30pm 28.5 24.3 12.4 37 9.4 NNE 26 30 14 16 1009.4 - 0.0
26/01:00pm 29.9 25.8 8.5 26 11.8 NE 20 28 11 15 1009.5 - 0.0
26/12:30pm 29.8 25.0 8.9 27 11.6 NE 24 30 13 16 1009.7 - 0.0
26/12:00pm 30.2 25.1 7.6 24 12.3 NE 24 33 13 18 1009.7 1009.7 0.0
26/11:30am 30.4 25.0 6.2 21 12.9 ENE 24 30 13 16 1010.1 - 0.0
26/11:00am 29.3 24.1 5.7 22 12.4 E 22 35 12 19 1010.5 - 0.0
26/10:30am 28.9 23.7 5.5 22 12.2 ESE 22 37 12 20 1010.8 - 0.0
26/10:00am 28.4 23.0 6.5 25 11.6 ESE 24 30 13 16 1010.9 - 0.0
26/09:30am 27.3 22.2 7.5 28 10.6 SE 24 32 13 17 1011.1 - 0.0
26/09:00am 26.0 21.5 8.4 32 9.5 SE 22 32 12 17 1011.2 1011.2 0.0
26/08:30am 25.0 22.5 13.4 48 6.8 SE 19 26 10 14 1011.1 - 0.0
26/08:00am 24.5 22.7 14.4 53 6.0 SE 17 22 9 12 1010.8 - 0.0
26/07:30am 23.8 21.8 14.9 57 5.3 ESE 19 24 10 13 1010.4 - 0.0
26/07:00am 23.1 21.3 14.5 58 5.1 SSE 17 20 9 11 1010.1 - 0.0
26/06:30am 22.9 22.3 14.6 59 4.9 S 11 15 6 8 1009.9 - 0.0
26/06:00am 22.7 22.5 14.6 60 4.8 S 9 13 5 7 1009.8 1009.8 0.0
26/05:30am 22.8 22.5 14.5 59 4.9 S 9 13 5 7 1009.5 - 0.0
26/05:00am 22.8 23.1 15.1 62 4.6 SW 7 9 4 5 1009.3 - 0.0
26/04:30am 22.7 23.3 15.3 63 4.4 W 6 7 3 4 1008.8 - 0.0
26/04:00am 22.8 23.5 15.7 64 4.3 WNW 6 9 3 5 1008.5 - 0.0
26/03:30am 22.8 23.0 15.8 64 4.2 WNW 9 11 5 6 1008.5 - 0.0
26/03:00am 22.8 23.0 15.8 64 4.2 WNW 9 15 5 8 1008.7 1008.7 0.0
26/02:30am 22.7 22.6 15.9 65 4.1 WNW 11 15 6 8 1008.8 - 0.0
26/02:00am 22.9 22.2 15.4 62 4.5 WNW 13 17 7 9 1008.9 - 0.0
26/01:30am 22.8 20.9 15.3 62 4.5 W 19 26 10 14 1009.1 - 0.0
26/01:00am 22.9 20.9 15.4 62 4.5 W 20 26 11 14 1009.5 - 0.0
26/12:30am 22.3 21.2 15.3 64 4.2 W 15 19 8 10 1009.9 - 0.0
26/12:00am 22.2 20.8 14.4 61 4.6 WNW 15 19 8 10 1010.4 1010.4 0.0
 
Date/Time
WST
Temp
°C
App
Temp
°C
Dew
Point
°C
Rel
Hum
%
Delta-T
°C
Wind Press
QNH
hPa
Press
MSL
hPa
Rain since
9am
mm
Dir  Spd
km/h
Gust
km/h
Spd
kts
Gust
kts
25/11:30pm 21.6 20.3 14.8 65 4.0 WNW 15 19 8 10 1010.6 - 0.0
25/11:00pm 22.0 20.4 14.9 64 4.2 W 17 22 9 12 1010.8 - 0.0
25/10:30pm 22.2 20.7 15.3 65 4.1 W 17 22 9 12 1011.0 - 0.0
25/10:00pm 22.6 21.9 16.3 67 3.8 W 15 17 8 9 1011.2 - 0.0
25/09:30pm 23.1 22.1 17.6 71 3.4 W 19 26 10 14 1011.1 - 0.0
25/09:00pm 23.7 21.9 16.1 62 4.6 WNW 20 24 11 13 1011.1 1011.1 0.0
25/08:30pm 23.8 22.3 16.8 65 4.3 WNW 20 26 11 14 1010.9 - 0.0
25/08:00pm 23.8 22.5 17.2 66 4.1 WNW 20 26 11 14 1010.7 - 0.0
25/07:30pm 23.9 21.9 17.3 66 4.1 NW 24 28 13 15 1010.2 - 0.0
25/07:00pm 24.0 22.2 16.9 64 4.4 NNW 22 32 12 17 1009.8 - 0.0
25/06:30pm 24.1 22.2 16.6 63 4.6 NW 22 28 12 15 1009.6 - 0.0
25/06:00pm 24.2 22.6 16.5 62 4.7 NW 20 28 11 15 1009.4 1009.4 0.0
25/05:30pm 25.0 22.3 14.6 52 6.2 NW 22 28 12 15 1009.0 - 0.0
25/05:00pm 26.2 23.2 14.9 49 6.8 NW 24 30 13 16 1008.7 - 0.0

Other Formats:

Comma delimited format used in spreadsheet applications
http://www.bom.gov.au/fwo/IDW60801/IDW60801.94312.axf

JavaScript Object Notation format (JSON) in row-major order
http://www.bom.gov.au/fwo/IDW60801/IDW60801.94312.json